sensor_id;sensor_type;location;lat;lon;timestamp;P1;durP1;ratioP1;P2;durP2;ratioP2
52432;SDS011;38352;53.244;6.594;2022-10-12T00:01:45;9.00;;;5.28;;
52432;SDS011;38352;53.244;6.594;2022-10-12T00:04:11;11.50;;;4.82;;
52432;SDS011;38352;53.244;6.594;2022-10-12T00:06:37;8.75;;;4.75;;
52432;SDS011;38352;53.244;6.594;2022-10-12T00:09:03;12.88;;;5.55;;
52432;SDS011;38352;53.244;6.594;2022-10-12T00:11:29;10.90;;;5.15;;
52432;SDS011;38352;53.244;6.594;2022-10-12T00:13:55;12.25;;;5.13;;
52432;SDS011;38352;53.244;6.594;2022-10-12T00:16:22;9.95;;;4.97;;
52432;SDS011;38352;53.244;6.594;2022-10-12T00:18:49;9.50;;;4.88;;
52432;SDS011;38352;53.244;6.594;2022-10-12T00:21:15;12.40;;;5.00;;
52432;SDS011;38352;53.244;6.594;2022-10-12T00:23:41;12.18;;;5.22;;
52432;SDS011;38352;53.244;6.594;2022-10-12T00:26:10;10.90;;;5.20;;
52432;SDS011;38352;53.244;6.594;2022-10-12T00:28:36;9.40;;;4.68;;
52432;SDS011;38352;53.244;6.594;2022-10-12T00:31:06;12.43;;;5.35;;
52432;SDS011;38352;53.244;6.594;2022-10-12T00:33:32;14.52;;;4.85;;
52432;SDS011;38352;53.244;6.594;2022-10-12T00:35:59;8.45;;;4.45;;
52432;SDS011;38352;53.244;6.594;2022-10-12T00:38:25;8.68;;;4.68;;
52432;SDS011;38352;53.244;6.594;2022-10-12T00:40:51;9.95;;;5.15;;
52432;SDS011;38352;53.244;6.594;2022-10-12T00:43:30;9.57;;;4.22;;
52432;SDS011;38352;53.244;6.594;2022-10-12T00:46:01;13.20;;;4.65;;
52432;SDS011;38352;53.244;6.594;2022-10-12T00:48:29;8.20;;;4.00;;
52432;SDS011;38352;53.244;6.594;2022-10-12T00:50:55;8.10;;;5.28;;
52432;SDS011;38352;53.244;6.594;2022-10-12T00:53:23;7.18;;;4.20;;
52432;SDS011;38352;53.244;6.594;2022-10-12T00:55:51;8.85;;;4.10;;
52432;SDS011;38352;53.244;6.594;2022-10-12T00:58:18;8.90;;;4.65;;
52432;SDS011;38352;53.244;6.594;2022-10-12T01:00:45;9.07;;;4.63;;
52432;SDS011;38352;53.244;6.594;2022-10-12T01:03:12;9.75;;;4.55;;
52432;SDS011;38352;53.244;6.594;2022-10-12T01:05:39;10.45;;;5.18;;
52432;SDS011;38352;53.244;6.594;2022-10-12T01:08:06;11.02;;;4.88;;
52432;SDS011;38352;53.244;6.594;2022-10-12T01:10:32;11.00;;;4.85;;
52432;SDS011;38352;53.244;6.594;2022-10-12T01:12:58;9.70;;;5.35;;
52432;SDS011;38352;53.244;6.594;2022-10-12T01:15:26;7.82;;;4.60;;
52432;SDS011;38352;53.244;6.594;2022-10-12T01:18:12;9.23;;;4.55;;
52432;SDS011;38352;53.244;6.594;2022-10-12T01:28:47;7.82;;;4.07;;
52432;SDS011;38352;53.244;6.594;2022-10-12T01:33:57;8.98;;;4.05;;
52432;SDS011;38352;53.244;6.594;2022-10-12T01:36:47;11.80;;;4.15;;
52432;SDS011;38352;53.244;6.594;2022-10-12T01:41:38;10.90;;;4.50;;
52432;SDS011;38352;53.244;6.594;2022-10-12T01:44:06;11.35;;;4.10;;
52432;SDS011;38352;53.244;6.594;2022-10-12T01:48:58;9.27;;;4.18;;
52432;SDS011;38352;53.244;6.594;2022-10-12T01:51:30;7.75;;;4.00;;
52432;SDS011;38352;53.244;6.594;2022-10-12T01:54:05;8.35;;;3.55;;
52432;SDS011;38352;53.244;6.594;2022-10-12T01:56:41;7.97;;;3.67;;
52432;SDS011;38352;53.244;6.594;2022-10-12T01:59:22;9.05;;;4.38;;
52432;SDS011;38352;53.244;6.594;2022-10-12T02:01:53;8.93;;;4.43;;
52432;SDS011;38352;53.244;6.594;2022-10-12T02:04:31;8.73;;;4.03;;
52432;SDS011;38352;53.244;6.594;2022-10-12T02:07:00;8.63;;;3.97;;
52432;SDS011;38352;53.244;6.594;2022-10-12T02:09:29;12.88;;;4.40;;
52432;SDS011;38352;53.244;6.594;2022-10-12T02:11:59;8.80;;;4.28;;
52432;SDS011;38352;53.244;6.594;2022-10-12T02:14:29;13.13;;;4.50;;
52432;SDS011;38352;53.244;6.594;2022-10-12T02:16:57;8.18;;;4.13;;
52432;SDS011;38352;53.244;6.594;2022-10-12T02:19:25;13.00;;;4.75;;
52432;SDS011;38352;53.244;6.594;2022-10-12T02:21:52;10.60;;;3.85;;
52432;SDS011;38352;53.244;6.594;2022-10-12T02:24:19;7.47;;;4.47;;
52432;SDS011;38352;53.244;6.594;2022-10-12T02:26:46;7.10;;;4.15;;
52432;SDS011;38352;53.244;6.594;2022-10-12T02:29:13;7.47;;;4.43;;
52432;SDS011;38352;53.244;6.594;2022-10-12T02:36:41;6.72;;;4.10;;
52432;SDS011;38352;53.244;6.594;2022-10-12T02:39:14;7.82;;;4.32;;
52432;SDS011;38352;53.244;6.594;2022-10-12T02:41:45;10.52;;;4.32;;
52432;SDS011;38352;53.244;6.594;2022-10-12T02:44:13;10.25;;;4.03;;
52432;SDS011;38352;53.244;6.594;2022-10-12T02:46:40;9.80;;;4.15;;
52432;SDS011;38352;53.244;6.594;2022-10-12T02:49:06;9.13;;;4.22;;
52432;SDS011;38352;53.244;6.594;2022-10-12T02:51:33;8.27;;;3.58;;
52432;SDS011;38352;53.244;6.594;2022-10-12T02:54:00;8.20;;;3.70;;
52432;SDS011;38352;53.244;6.594;2022-10-12T02:56:26;8.15;;;4.13;;
52432;SDS011;38352;53.244;6.594;2022-10-12T02:58:53;10.82;;;4.07;;
52432;SDS011;38352;53.244;6.594;2022-10-12T03:01:19;9.35;;;4.50;;
52432;SDS011;38352;53.244;6.594;2022-10-12T03:03:45;6.45;;;3.90;;
52432;SDS011;38352;53.244;6.594;2022-10-12T03:06:11;9.68;;;4.15;;
52432;SDS011;38352;53.244;6.594;2022-10-12T03:08:37;10.65;;;3.53;;
52432;SDS011;38352;53.244;6.594;2022-10-12T03:11:04;7.43;;;3.80;;
52432;SDS011;38352;53.244;6.594;2022-10-12T03:13:31;8.23;;;4.20;;
52432;SDS011;38352;53.244;6.594;2022-10-12T03:16:01;8.32;;;4.25;;
52432;SDS011;38352;53.244;6.594;2022-10-12T03:18:27;11.35;;;4.50;;
52432;SDS011;38352;53.244;6.594;2022-10-12T03:20:53;8.63;;;4.55;;
52432;SDS011;38352;53.244;6.594;2022-10-12T03:23:19;7.85;;;4.00;;
52432;SDS011;38352;53.244;6.594;2022-10-12T03:25:45;6.65;;;3.75;;
52432;SDS011;38352;53.244;6.594;2022-10-12T03:28:11;8.48;;;4.20;;
52432;SDS011;38352;53.244;6.594;2022-10-12T03:30:38;8.00;;;4.15;;
52432;SDS011;38352;53.244;6.594;2022-10-12T03:33:04;14.77;;;4.35;;
52432;SDS011;38352;53.244;6.594;2022-10-12T03:35:30;12.00;;;4.47;;
52432;SDS011;38352;53.244;6.594;2022-10-12T03:37:56;8.30;;;4.35;;
52432;SDS011;38352;53.244;6.594;2022-10-12T03:40:22;8.98;;;4.40;;
52432;SDS011;38352;53.244;6.594;2022-10-12T03:42:48;7.05;;;3.70;;
52432;SDS011;38352;53.244;6.594;2022-10-12T03:45:14;14.50;;;4.50;;
52432;SDS011;38352;53.244;6.594;2022-10-12T03:47:40;8.30;;;4.35;;
52432;SDS011;38352;53.244;6.594;2022-10-12T03:50:06;8.02;;;4.35;;
52432;SDS011;38352;53.244;6.594;2022-10-12T03:52:33;11.32;;;5.05;;
52432;SDS011;38352;53.244;6.594;2022-10-12T03:54:59;9.20;;;4.10;;
52432;SDS011;38352;53.244;6.594;2022-10-12T03:57:25;6.00;;;3.42;;
52432;SDS011;38352;53.244;6.594;2022-10-12T03:59:51;6.93;;;3.80;;
52432;SDS011;38352;53.244;6.594;2022-10-12T04:02:17;7.38;;;3.90;;
52432;SDS011;38352;53.244;6.594;2022-10-12T04:04:43;8.25;;;4.00;;
52432;SDS011;38352;53.244;6.594;2022-10-12T04:07:09;6.80;;;3.40;;
52432;SDS011;38352;53.244;6.594;2022-10-12T04:09:35;9.77;;;4.10;;
52432;SDS011;38352;53.244;6.594;2022-10-12T04:12:01;7.32;;;3.70;;
52432;SDS011;38352;53.244;6.594;2022-10-12T04:14:27;9.90;;;4.30;;
52432;SDS011;38352;53.244;6.594;2022-10-12T04:16:53;8.50;;;4.47;;
52432;SDS011;38352;53.244;6.594;2022-10-12T04:19:19;7.35;;;4.47;;
52432;SDS011;38352;53.244;6.594;2022-10-12T04:21:46;7.95;;;4.03;;
52432;SDS011;38352;53.244;6.594;2022-10-12T04:24:13;11.75;;;5.18;;
52432;SDS011;38352;53.244;6.594;2022-10-12T04:26:39;10.20;;;4.72;;
52432;SDS011;38352;53.244;6.594;2022-10-12T04:29:05;8.60;;;4.57;;
52432;SDS011;38352;53.244;6.594;2022-10-12T04:31:31;11.63;;;4.68;;
52432;SDS011;38352;53.244;6.594;2022-10-12T04:33:57;7.75;;;4.53;;
52432;SDS011;38352;53.244;6.594;2022-10-12T04:36:24;10.02;;;4.50;;
52432;SDS011;38352;53.244;6.594;2022-10-12T04:38:50;8.95;;;4.65;;
52432;SDS011;38352;53.244;6.594;2022-10-12T04:41:16;7.35;;;4.50;;
52432;SDS011;38352;53.244;6.594;2022-10-12T04:43:42;8.90;;;4.60;;
52432;SDS011;38352;53.244;6.594;2022-10-12T04:46:08;10.77;;;5.47;;
52432;SDS011;38352;53.244;6.594;2022-10-12T04:48:34;8.88;;;5.38;;
52432;SDS011;38352;53.244;6.594;2022-10-12T04:51:00;14.30;;;5.75;;
52432;SDS011;38352;53.244;6.594;2022-10-12T04:53:26;10.90;;;5.38;;
52432;SDS011;38352;53.244;6.594;2022-10-12T04:55:52;11.18;;;5.68;;
52432;SDS011;38352;53.244;6.594;2022-10-12T04:58:18;11.48;;;5.78;;
52432;SDS011;38352;53.244;6.594;2022-10-12T05:00:45;10.82;;;6.22;;
52432;SDS011;38352;53.244;6.594;2022-10-12T05:03:12;11.82;;;5.57;;
52432;SDS011;38352;53.244;6.594;2022-10-12T05:05:38;15.25;;;6.28;;
52432;SDS011;38352;53.244;6.594;2022-10-12T05:08:04;11.55;;;6.03;;
52432;SDS011;38352;53.244;6.594;2022-10-12T05:10:30;11.20;;;6.10;;
52432;SDS011;38352;53.244;6.594;2022-10-12T05:12:56;13.15;;;6.32;;
52432;SDS011;38352;53.244;6.594;2022-10-12T05:15:22;11.32;;;6.68;;
52432;SDS011;38352;53.244;6.594;2022-10-12T05:17:48;11.52;;;6.07;;
52432;SDS011;38352;53.244;6.594;2022-10-12T05:20:14;10.73;;;5.78;;
52432;SDS011;38352;53.244;6.594;2022-10-12T05:22:40;12.40;;;6.38;;
52432;SDS011;38352;53.244;6.594;2022-10-12T05:25:07;10.50;;;5.82;;
52432;SDS011;38352;53.244;6.594;2022-10-12T05:27:33;9.48;;;6.47;;
52432;SDS011;38352;53.244;6.594;2022-10-12T05:29:59;14.73;;;6.78;;
52432;SDS011;38352;53.244;6.594;2022-10-12T05:32:25;11.75;;;6.82;;
52432;SDS011;38352;53.244;6.594;2022-10-12T05:34:51;11.85;;;6.60;;
52432;SDS011;38352;53.244;6.594;2022-10-12T05:37:19;12.73;;;6.20;;
52432;SDS011;38352;53.244;6.594;2022-10-12T05:39:45;12.77;;;6.55;;
52432;SDS011;38352;53.244;6.594;2022-10-12T05:42:11;11.38;;;6.82;;
52432;SDS011;38352;53.244;6.594;2022-10-12T05:44:37;10.77;;;6.35;;
52432;SDS011;38352;53.244;6.594;2022-10-12T05:47:03;11.32;;;6.32;;
52432;SDS011;38352;53.244;6.594;2022-10-12T05:49:29;10.00;;;6.18;;
52432;SDS011;38352;53.244;6.594;2022-10-12T05:51:55;13.70;;;5.63;;
52432;SDS011;38352;53.244;6.594;2022-10-12T05:54:21;13.38;;;5.97;;
52432;SDS011;38352;53.244;6.594;2022-10-12T05:56:47;13.65;;;6.28;;
52432;SDS011;38352;53.244;6.594;2022-10-12T05:59:13;9.10;;;5.25;;
52432;SDS011;38352;53.244;6.594;2022-10-12T06:01:39;12.90;;;5.80;;
52432;SDS011;38352;53.244;6.594;2022-10-12T06:04:05;11.13;;;5.78;;
52432;SDS011;38352;53.244;6.594;2022-10-12T06:06:31;9.30;;;5.75;;
52432;SDS011;38352;53.244;6.594;2022-10-12T06:08:57;11.25;;;5.78;;
52432;SDS011;38352;53.244;6.594;2022-10-12T06:11:23;12.32;;;5.85;;
52432;SDS011;38352;53.244;6.594;2022-10-12T06:13:50;13.68;;;5.90;;
52432;SDS011;38352;53.244;6.594;2022-10-12T06:16:18;12.25;;;5.22;;
52432;SDS011;38352;53.244;6.594;2022-10-12T06:18:44;9.63;;;6.18;;
52432;SDS011;38352;53.244;6.594;2022-10-12T06:21:10;11.43;;;5.72;;
52432;SDS011;38352;53.244;6.594;2022-10-12T06:23:36;11.40;;;6.45;;
52432;SDS011;38352;53.244;6.594;2022-10-12T06:26:02;12.00;;;6.45;;
52432;SDS011;38352;53.244;6.594;2022-10-12T06:28:28;11.98;;;5.88;;
52432;SDS011;38352;53.244;6.594;2022-10-12T06:30:55;9.18;;;5.93;;
52432;SDS011;38352;53.244;6.594;2022-10-12T06:33:21;15.50;;;6.53;;
52432;SDS011;38352;53.244;6.594;2022-10-12T06:35:48;16.98;;;6.68;;
52432;SDS011;38352;53.244;6.594;2022-10-12T06:38:14;13.77;;;6.35;;
52432;SDS011;38352;53.244;6.594;2022-10-12T06:40:40;11.80;;;6.55;;
52432;SDS011;38352;53.244;6.594;2022-10-12T06:43:06;12.68;;;6.88;;
52432;SDS011;38352;53.244;6.594;2022-10-12T06:45:32;9.52;;;6.15;;
52432;SDS011;38352;53.244;6.594;2022-10-12T06:47:59;13.00;;;7.18;;
52432;SDS011;38352;53.244;6.594;2022-10-12T06:50:25;15.45;;;6.55;;
52432;SDS011;38352;53.244;6.594;2022-10-12T06:52:51;14.07;;;7.38;;
52432;SDS011;38352;53.244;6.594;2022-10-12T06:55:18;13.95;;;7.38;;
52432;SDS011;38352;53.244;6.594;2022-10-12T06:57:44;13.18;;;7.13;;
52432;SDS011;38352;53.244;6.594;2022-10-12T07:00:10;16.63;;;7.35;;
52432;SDS011;38352;53.244;6.594;2022-10-12T07:02:37;12.73;;;6.72;;
52432;SDS011;38352;53.244;6.594;2022-10-12T07:05:03;12.63;;;7.88;;
52432;SDS011;38352;53.244;6.594;2022-10-12T07:07:30;19.38;;;7.85;;
52432;SDS011;38352;53.244;6.594;2022-10-12T07:09:57;16.48;;;8.10;;
52432;SDS011;38352;53.244;6.594;2022-10-12T07:12:23;17.67;;;9.32;;
52432;SDS011;38352;53.244;6.594;2022-10-12T07:14:49;14.13;;;8.45;;
52432;SDS011;38352;53.244;6.594;2022-10-12T07:17:15;20.52;;;9.35;;
52432;SDS011;38352;53.244;6.594;2022-10-12T07:19:42;18.15;;;8.77;;
52432;SDS011;38352;53.244;6.594;2022-10-12T07:22:08;16.30;;;9.43;;
52432;SDS011;38352;53.244;6.594;2022-10-12T07:24:34;19.13;;;8.90;;
52432;SDS011;38352;53.244;6.594;2022-10-12T07:27:04;17.40;;;9.05;;
52432;SDS011;38352;53.244;6.594;2022-10-12T07:29:31;15.82;;;9.15;;
52432;SDS011;38352;53.244;6.594;2022-10-12T07:31:58;16.98;;;10.27;;
52432;SDS011;38352;53.244;6.594;2022-10-12T07:34:24;20.35;;;10.68;;
52432;SDS011;38352;53.244;6.594;2022-10-12T07:36:50;16.15;;;8.80;;
52432;SDS011;38352;53.244;6.594;2022-10-12T07:39:17;20.83;;;10.48;;
52432;SDS011;38352;53.244;6.594;2022-10-12T07:41:43;21.77;;;10.38;;
52432;SDS011;38352;53.244;6.594;2022-10-12T07:44:10;17.80;;;9.27;;
52432;SDS011;38352;53.244;6.594;2022-10-12T07:46:36;20.13;;;9.02;;
52432;SDS011;38352;53.244;6.594;2022-10-12T07:49:02;18.13;;;8.93;;
52432;SDS011;38352;53.244;6.594;2022-10-12T07:51:28;17.95;;;7.75;;
52432;SDS011;38352;53.244;6.594;2022-10-12T07:53:55;14.80;;;7.78;;
52432;SDS011;38352;53.244;6.594;2022-10-12T07:56:21;14.68;;;7.38;;
52432;SDS011;38352;53.244;6.594;2022-10-12T07:58:48;14.02;;;7.38;;
52432;SDS011;38352;53.244;6.594;2022-10-12T08:01:15;16.13;;;7.10;;
52432;SDS011;38352;53.244;6.594;2022-10-12T08:03:41;16.92;;;7.55;;
52432;SDS011;38352;53.244;6.594;2022-10-12T08:06:10;12.48;;;6.57;;
52432;SDS011;38352;53.244;6.594;2022-10-12T08:08:37;15.13;;;6.40;;
52432;SDS011;38352;53.244;6.594;2022-10-12T08:11:03;16.45;;;7.15;;
52432;SDS011;38352;53.244;6.594;2022-10-12T08:13:30;16.20;;;6.32;;
52432;SDS011;38352;53.244;6.594;2022-10-12T08:15:56;15.70;;;6.03;;
52432;SDS011;38352;53.244;6.594;2022-10-12T08:18:22;14.48;;;6.70;;
52432;SDS011;38352;53.244;6.594;2022-10-12T08:20:48;15.63;;;6.32;;
52432;SDS011;38352;53.244;6.594;2022-10-12T08:23:14;13.00;;;7.10;;
52432;SDS011;38352;53.244;6.594;2022-10-12T08:25:40;15.07;;;6.50;;
52432;SDS011;38352;53.244;6.594;2022-10-12T08:28:08;12.95;;;6.88;;
52432;SDS011;38352;53.244;6.594;2022-10-12T08:30:34;16.80;;;6.10;;
52432;SDS011;38352;53.244;6.594;2022-10-12T08:33:03;13.35;;;6.07;;
52432;SDS011;38352;53.244;6.594;2022-10-12T08:35:29;11.98;;;5.82;;
52432;SDS011;38352;53.244;6.594;2022-10-12T08:37:55;14.15;;;6.05;;
52432;SDS011;38352;53.244;6.594;2022-10-12T08:40:25;16.42;;;6.18;;
52432;SDS011;38352;53.244;6.594;2022-10-12T08:45:55;11.70;;;5.63;;
52432;SDS011;38352;53.244;6.594;2022-10-12T08:48:33;14.52;;;6.05;;
52432;SDS011;38352;53.244;6.594;2022-10-12T08:51:04;16.02;;;7.32;;
52432;SDS011;38352;53.244;6.594;2022-10-12T08:53:32;14.50;;;7.43;;
52432;SDS011;38352;53.244;6.594;2022-10-12T08:56:00;18.10;;;6.20;;
52432;SDS011;38352;53.244;6.594;2022-10-12T08:58:30;14.02;;;6.63;;
52432;SDS011;38352;53.244;6.594;2022-10-12T09:00:58;16.25;;;6.47;;
52432;SDS011;38352;53.244;6.594;2022-10-12T09:03:42;11.73;;;6.40;;
52432;SDS011;38352;53.244;6.594;2022-10-12T09:06:17;18.83;;;6.20;;
52432;SDS011;38352;53.244;6.594;2022-10-12T09:14:03;18.42;;;6.72;;
52432;SDS011;38352;53.244;6.594;2022-10-12T09:16:31;13.13;;;5.93;;
52432;SDS011;38352;53.244;6.594;2022-10-12T09:19:06;17.33;;;7.30;;
52432;SDS011;38352;53.244;6.594;2022-10-12T09:21:34;13.05;;;6.40;;
52432;SDS011;38352;53.244;6.594;2022-10-12T09:24:01;15.35;;;6.93;;
52432;SDS011;38352;53.244;6.594;2022-10-12T09:26:35;15.57;;;6.50;;
52432;SDS011;38352;53.244;6.594;2022-10-12T09:29:02;14.32;;;6.47;;
52432;SDS011;38352;53.244;6.594;2022-10-12T09:34:03;20.00;;;8.70;;
52432;SDS011;38352;53.244;6.594;2022-10-12T09:36:31;14.80;;;6.47;;
52432;SDS011;38352;53.244;6.594;2022-10-12T09:38:58;14.45;;;7.13;;
52432;SDS011;38352;53.244;6.594;2022-10-12T09:41:27;17.30;;;7.53;;
52432;SDS011;38352;53.244;6.594;2022-10-12T09:43:56;12.32;;;6.45;;
52432;SDS011;38352;53.244;6.594;2022-10-12T09:46:41;14.95;;;6.15;;
52432;SDS011;38352;53.244;6.594;2022-10-12T09:49:09;13.80;;;6.47;;
52432;SDS011;38352;53.244;6.594;2022-10-12T09:51:35;13.23;;;6.03;;
52432;SDS011;38352;53.244;6.594;2022-10-12T09:54:02;12.10;;;5.35;;
52432;SDS011;38352;53.244;6.594;2022-10-12T09:56:34;12.15;;;5.18;;
52432;SDS011;38352;53.244;6.594;2022-10-12T09:59:16;10.13;;;5.05;;
52432;SDS011;38352;53.244;6.594;2022-10-12T10:04:30;12.25;;;5.43;;
52432;SDS011;38352;53.244;6.594;2022-10-12T10:07:10;11.98;;;5.35;;
52432;SDS011;38352;53.244;6.594;2022-10-12T10:09:37;10.20;;;4.05;;
52432;SDS011;38352;53.244;6.594;2022-10-12T10:12:15;9.57;;;4.05;;
52432;SDS011;38352;53.244;6.594;2022-10-12T10:14:45;10.93;;;4.32;;
52432;SDS011;38352;53.244;6.594;2022-10-12T10:17:15;11.80;;;3.95;;
52432;SDS011;38352;53.244;6.594;2022-10-12T10:19:51;10.88;;;4.20;;
52432;SDS011;38352;53.244;6.594;2022-10-12T10:22:18;15.63;;;4.38;;
52432;SDS011;38352;53.244;6.594;2022-10-12T10:24:48;15.60;;;4.15;;
52432;SDS011;38352;53.244;6.594;2022-10-12T10:29:53;7.50;;;3.72;;
52432;SDS011;38352;53.244;6.594;2022-10-12T10:32:32;12.25;;;3.47;;
52432;SDS011;38352;53.244;6.594;2022-10-12T10:35:19;11.35;;;3.83;;
52432;SDS011;38352;53.244;6.594;2022-10-12T10:38:04;13.93;;;3.75;;
52432;SDS011;38352;53.244;6.594;2022-10-12T10:40:53;9.90;;;3.45;;
52432;SDS011;38352;53.244;6.594;2022-10-12T10:43:39;7.13;;;2.92;;
52432;SDS011;38352;53.244;6.594;2022-10-12T10:46:24;10.30;;;3.38;;
52432;SDS011;38352;53.244;6.594;2022-10-12T10:48:55;9.85;;;2.70;;
52432;SDS011;38352;53.244;6.594;2022-10-12T10:54:29;10.55;;;4.40;;
52432;SDS011;38352;53.244;6.594;2022-10-12T10:57:27;8.10;;;3.03;;
52432;SDS011;38352;53.244;6.594;2022-10-12T10:59:47;11.30;;;3.10;;
52432;SDS011;38352;53.244;6.594;2022-10-12T11:02:16;8.27;;;3.22;;
52432;SDS011;38352;53.244;6.594;2022-10-12T11:04:46;10.82;;;2.92;;
52432;SDS011;38352;53.244;6.594;2022-10-12T11:07:23;12.23;;;3.50;;
52432;SDS011;38352;53.244;6.594;2022-10-12T11:09:54;11.15;;;3.80;;
52432;SDS011;38352;53.244;6.594;2022-10-12T11:15:19;9.70;;;3.30;;
52432;SDS011;38352;53.244;6.594;2022-10-12T11:17:49;11.93;;;3.08;;
52432;SDS011;38352;53.244;6.594;2022-10-12T11:25:13;10.65;;;2.97;;
52432;SDS011;38352;53.244;6.594;2022-10-12T11:27:43;9.07;;;3.13;;
52432;SDS011;38352;53.244;6.594;2022-10-12T11:30:14;13.70;;;3.38;;
52432;SDS011;38352;53.244;6.594;2022-10-12T11:32:41;11.65;;;3.17;;
52432;SDS011;38352;53.244;6.594;2022-10-12T11:37:54;8.35;;;2.72;;
52432;SDS011;38352;53.244;6.594;2022-10-12T11:40:23;7.93;;;2.70;;
52432;SDS011;38352;53.244;6.594;2022-10-12T11:42:50;9.27;;;2.50;;
52432;SDS011;38352;53.244;6.594;2022-10-12T11:45:18;7.93;;;2.60;;
52432;SDS011;38352;53.244;6.594;2022-10-12T11:47:46;10.80;;;3.10;;
52432;SDS011;38352;53.244;6.594;2022-10-12T11:50:23;8.43;;;2.35;;
52432;SDS011;38352;53.244;6.594;2022-10-12T11:52:52;9.80;;;2.30;;
52432;SDS011;38352;53.244;6.594;2022-10-12T11:58:03;7.03;;;1.95;;
52432;SDS011;38352;53.244;6.594;2022-10-12T12:03:06;8.18;;;1.95;;
52432;SDS011;38352;53.244;6.594;2022-10-12T12:05:35;5.65;;;1.70;;
52432;SDS011;38352;53.244;6.594;2022-10-12T12:08:01;8.07;;;2.80;;
52432;SDS011;38352;53.244;6.594;2022-10-12T12:25:47;12.38;;;2.63;;
52432;SDS011;38352;53.244;6.594;2022-10-12T12:28:28;10.13;;;2.28;;
52432;SDS011;38352;53.244;6.594;2022-10-12T12:31:01;10.20;;;2.15;;
52432;SDS011;38352;53.244;6.594;2022-10-12T12:33:33;5.78;;;2.00;;
52432;SDS011;38352;53.244;6.594;2022-10-12T12:36:03;7.17;;;2.00;;
52432;SDS011;38352;53.244;6.594;2022-10-12T12:38:31;4.97;;;1.77;;
52432;SDS011;38352;53.244;6.594;2022-10-12T12:40:59;10.20;;;2.20;;
52432;SDS011;38352;53.244;6.594;2022-10-12T12:46:02;7.35;;;2.25;;
52432;SDS011;38352;53.244;6.594;2022-10-12T12:49:22;8.70;;;2.15;;
52432;SDS011;38352;53.244;6.594;2022-10-12T12:51:16;69.88;;;8.43;;
52432;SDS011;38352;53.244;6.594;2022-10-12T12:53:55;7.40;;;1.98;;
52432;SDS011;38352;53.244;6.594;2022-10-12T13:09:36;7.38;;;2.53;;
52432;SDS011;38352;53.244;6.594;2022-10-12T13:12:09;6.53;;;2.20;;
52432;SDS011;38352;53.244;6.594;2022-10-12T13:14:57;6.15;;;1.55;;
52432;SDS011;38352;53.244;6.594;2022-10-12T13:19:52;11.57;;;2.50;;
52432;SDS011;38352;53.244;6.594;2022-10-12T13:22:37;8.02;;;1.90;;
52432;SDS011;38352;53.244;6.594;2022-10-12T13:25:04;9.05;;;1.92;;
52432;SDS011;38352;53.244;6.594;2022-10-12T13:27:35;5.18;;;1.75;;
52432;SDS011;38352;53.244;6.594;2022-10-12T13:40:40;6.97;;;2.03;;
52432;SDS011;38352;53.244;6.594;2022-10-12T13:43:24;10.75;;;2.50;;
52432;SDS011;38352;53.244;6.594;2022-10-12T13:45:51;8.32;;;2.17;;
52432;SDS011;38352;53.244;6.594;2022-10-12T13:48:18;11.52;;;2.70;;
52432;SDS011;38352;53.244;6.594;2022-10-12T13:50:49;7.82;;;2.33;;
52432;SDS011;38352;53.244;6.594;2022-10-12T13:53:15;7.30;;;2.10;;
52432;SDS011;38352;53.244;6.594;2022-10-12T13:55:41;7.93;;;1.88;;
52432;SDS011;38352;53.244;6.594;2022-10-12T13:58:25;8.35;;;2.13;;
52432;SDS011;38352;53.244;6.594;2022-10-12T14:00:52;7.40;;;2.00;;
52432;SDS011;38352;53.244;6.594;2022-10-12T14:03:22;8.70;;;2.10;;
52432;SDS011;38352;53.244;6.594;2022-10-12T14:05:48;15.45;;;2.75;;
52432;SDS011;38352;53.244;6.594;2022-10-12T14:08:16;7.43;;;3.30;;
52432;SDS011;38352;53.244;6.594;2022-10-12T14:10:44;7.78;;;2.55;;
52432;SDS011;38352;53.244;6.594;2022-10-12T14:13:13;7.68;;;2.50;;
52432;SDS011;38352;53.244;6.594;2022-10-12T14:15:40;9.27;;;2.70;;
52432;SDS011;38352;53.244;6.594;2022-10-12T14:21:02;8.77;;;2.13;;
52432;SDS011;38352;53.244;6.594;2022-10-12T14:23:29;7.32;;;2.72;;
52432;SDS011;38352;53.244;6.594;2022-10-12T14:25:55;7.53;;;2.72;;
52432;SDS011;38352;53.244;6.594;2022-10-12T14:28:29;8.52;;;2.60;;
52432;SDS011;38352;53.244;6.594;2022-10-12T14:30:56;9.70;;;2.88;;
52432;SDS011;38352;53.244;6.594;2022-10-12T14:33:23;259.52;;;25.17;;
52432;SDS011;38352;53.244;6.594;2022-10-12T14:35:49;25.27;;;3.92;;
52432;SDS011;38352;53.244;6.594;2022-10-12T14:44:01;9.30;;;3.00;;
52432;SDS011;38352;53.244;6.594;2022-10-12T14:46:28;8.60;;;2.60;;
52432;SDS011;38352;53.244;6.594;2022-10-12T14:48:54;6.72;;;3.22;;
52432;SDS011;38352;53.244;6.594;2022-10-12T14:51:20;8.57;;;2.83;;
52432;SDS011;38352;53.244;6.594;2022-10-12T14:53:56;7.43;;;3.00;;
52432;SDS011;38352;53.244;6.594;2022-10-12T14:56:22;7.72;;;3.05;;
52432;SDS011;38352;53.244;6.594;2022-10-12T14:58:48;9.70;;;3.13;;
52432;SDS011;38352;53.244;6.594;2022-10-12T15:01:14;10.07;;;3.40;;
52432;SDS011;38352;53.244;6.594;2022-10-12T15:03:40;7.45;;;3.17;;
52432;SDS011;38352;53.244;6.594;2022-10-12T15:06:09;11.90;;;3.42;;
52432;SDS011;38352;53.244;6.594;2022-10-12T15:08:36;14.75;;;3.53;;
52432;SDS011;38352;53.244;6.594;2022-10-12T15:11:02;7.13;;;3.10;;
52432;SDS011;38352;53.244;6.594;2022-10-12T15:13:28;7.90;;;3.80;;
52432;SDS011;38352;53.244;6.594;2022-10-12T15:15:54;10.70;;;3.22;;
52432;SDS011;38352;53.244;6.594;2022-10-12T15:18:20;10.45;;;3.70;;
52432;SDS011;38352;53.244;6.594;2022-10-12T15:20:46;9.85;;;3.35;;
52432;SDS011;38352;53.244;6.594;2022-10-12T15:23:13;13.05;;;3.92;;
52432;SDS011;38352;53.244;6.594;2022-10-12T15:25:44;11.65;;;3.53;;
52432;SDS011;38352;53.244;6.594;2022-10-12T15:28:12;7.77;;;3.30;;
52432;SDS011;38352;53.244;6.594;2022-10-12T15:30:38;9.32;;;3.80;;
52432;SDS011;38352;53.244;6.594;2022-10-12T15:33:04;12.70;;;3.70;;
52432;SDS011;38352;53.244;6.594;2022-10-12T15:35:31;9.52;;;3.20;;
52432;SDS011;38352;53.244;6.594;2022-10-12T15:37:58;17.00;;;4.03;;
52432;SDS011;38352;53.244;6.594;2022-10-12T15:40:26;11.13;;;4.22;;
52432;SDS011;38352;53.244;6.594;2022-10-12T15:42:52;8.40;;;3.25;;
52432;SDS011;38352;53.244;6.594;2022-10-12T15:47:45;10.63;;;4.30;;
52432;SDS011;38352;53.244;6.594;2022-10-12T15:50:12;8.75;;;3.33;;
52432;SDS011;38352;53.244;6.594;2022-10-12T15:52:38;9.27;;;3.75;;
52432;SDS011;38352;53.244;6.594;2022-10-12T15:55:14;8.73;;;3.33;;
52432;SDS011;38352;53.244;6.594;2022-10-12T15:57:40;13.43;;;4.35;;
52432;SDS011;38352;53.244;6.594;2022-10-12T16:00:07;9.15;;;3.53;;
52432;SDS011;38352;53.244;6.594;2022-10-12T16:02:33;10.18;;;3.70;;
52432;SDS011;38352;53.244;6.594;2022-10-12T16:04:59;10.95;;;3.58;;
52432;SDS011;38352;53.244;6.594;2022-10-12T16:07:26;12.57;;;3.75;;
52432;SDS011;38352;53.244;6.594;2022-10-12T16:09:52;11.48;;;3.97;;
52432;SDS011;38352;53.244;6.594;2022-10-12T16:12:18;10.00;;;3.40;;
52432;SDS011;38352;53.244;6.594;2022-10-12T16:14:44;10.48;;;3.70;;
52432;SDS011;38352;53.244;6.594;2022-10-12T16:17:10;13.40;;;3.55;;
52432;SDS011;38352;53.244;6.594;2022-10-12T16:19:36;19.38;;;4.93;;
52432;SDS011;38352;53.244;6.594;2022-10-12T16:22:02;43.58;;;7.45;;
52432;SDS011;38352;53.244;6.594;2022-10-12T16:24:29;16.65;;;4.50;;
52432;SDS011;38352;53.244;6.594;2022-10-12T16:26:55;10.73;;;4.43;;
52432;SDS011;38352;53.244;6.594;2022-10-12T16:29:21;11.18;;;3.85;;
52432;SDS011;38352;53.244;6.594;2022-10-12T16:31:47;8.93;;;3.67;;
52432;SDS011;38352;53.244;6.594;2022-10-12T16:34:13;7.85;;;3.97;;
52432;SDS011;38352;53.244;6.594;2022-10-12T16:36:39;9.93;;;4.18;;
52432;SDS011;38352;53.244;6.594;2022-10-12T16:39:05;10.77;;;3.95;;